Terminal Aerodrome Forecast
Issued by NWS North Platte, NE

Home | Current Version | Previous Version | Text Only | Print | Product List | Glossary Off
Versions: 1 2 3 4 5 6 7 8 9 10 11 12 13 14 15 16 17 18 19 20 21

000
FTUS43 KLBF 172320
TAFVTN
TAF
KVTN 172320Z 1800/1824 20012KT P6SM SCT250
     FM180200 22010KT P6SM VCTS SCT100CB BKN200
     FM180500 27007KT P6SM BKN200
     FM181300 30006KT P6SM FEW250
     FM181700 33010KT P6SM SKC=

USA.gov is the U.S. government's official web portal to all federal, state and local government web resources and services.